sensor_id;sensor_type;location;lat;lon;timestamp;pressure;altitude;pressure_sealevel;temperature;humidity
12178;BME280;6152;48.728;9.256;2023-06-14T00:00:20;96608.31;;;15.47;53.21
12178;BME280;6152;48.728;9.256;2023-06-14T00:02:46;96613.97;;;15.43;54.36
12178;BME280;6152;48.728;9.256;2023-06-14T00:05:12;96619.59;;;15.38;54.75
12178;BME280;6152;48.728;9.256;2023-06-14T00:07:41;96618.91;;;15.36;56.40
12178;BME280;6152;48.728;9.256;2023-06-14T00:10:11;96613.50;;;15.28;56.12
12178;BME280;6152;48.728;9.256;2023-06-14T00:12:39;96618.34;;;15.23;56.90
12178;BME280;6152;48.728;9.256;2023-06-14T00:15:05;96614.72;;;15.14;57.63
12178;BME280;6152;48.728;9.256;2023-06-14T00:17:32;96604.88;;;15.07;58.44
12178;BME280;6152;48.728;9.256;2023-06-14T00:19:59;96612.59;;;14.99;59.01
12178;BME280;6152;48.728;9.256;2023-06-14T00:22:25;96624.41;;;14.93;59.13
12178;BME280;6152;48.728;9.256;2023-06-14T00:24:54;96605.91;;;14.85;59.53
12178;BME280;6152;48.728;9.256;2023-06-14T00:27:20;96615.84;;;14.82;60.42
12178;BME280;6152;48.728;9.256;2023-06-14T00:29:46;96616.34;;;14.76;60.98
12178;BME280;6152;48.728;9.256;2023-06-14T00:32:12;96610.53;;;14.72;62.12
12178;BME280;6152;48.728;9.256;2023-06-14T00:34:38;96604.97;;;14.65;62.00
12178;BME280;6152;48.728;9.256;2023-06-14T00:37:05;96605.25;;;14.62;63.00
12178;BME280;6152;48.728;9.256;2023-06-14T00:39:31;96605.50;;;14.59;62.95
12178;BME280;6152;48.728;9.256;2023-06-14T00:41:57;96604.09;;;14.55;62.98
12178;BME280;6152;48.728;9.256;2023-06-14T00:44:25;96612.38;;;14.51;63.36
12178;BME280;6152;48.728;9.256;2023-06-14T00:46:51;96604.88;;;14.46;64.37
12178;BME280;6152;48.728;9.256;2023-06-14T00:49:18;96604.31;;;14.43;64.40
12178;BME280;6152;48.728;9.256;2023-06-14T00:51:45;96610.66;;;14.40;64.53
12178;BME280;6152;48.728;9.256;2023-06-14T00:54:11;96609.09;;;14.38;66.28
12178;BME280;6152;48.728;9.256;2023-06-14T00:56:38;96605.09;;;14.34;66.42
12178;BME280;6152;48.728;9.256;2023-06-14T00:59:04;96606.38;;;14.28;66.94
12178;BME280;6152;48.728;9.256;2023-06-14T01:01:32;96610.22;;;14.24;68.03
12178;BME280;6152;48.728;9.256;2023-06-14T01:04:01;96613.22;;;14.20;68.77
12178;BME280;6152;48.728;9.256;2023-06-14T01:06:51;96611.81;;;14.15;69.57
12178;BME280;6152;48.728;9.256;2023-06-14T01:09:38;96616.34;;;14.13;70.54
12178;BME280;6152;48.728;9.256;2023-06-14T01:14:42;96608.41;;;14.04;72.51
12178;BME280;6152;48.728;9.256;2023-06-14T01:17:08;96610.09;;;14.05;73.90
12178;BME280;6152;48.728;9.256;2023-06-14T01:19:45;96618.19;;;14.02;74.78
12178;BME280;6152;48.728;9.256;2023-06-14T01:22:12;96619.50;;;13.96;74.66
12178;BME280;6152;48.728;9.256;2023-06-14T01:24:38;96613.00;;;13.91;74.30
12178;BME280;6152;48.728;9.256;2023-06-14T01:27:06;96611.59;;;13.87;74.19
12178;BME280;6152;48.728;9.256;2023-06-14T01:29:33;96617.06;;;13.84;70.85
12178;BME280;6152;48.728;9.256;2023-06-14T01:32:02;96615.41;;;13.83;70.30
12178;BME280;6152;48.728;9.256;2023-06-14T01:34:29;96610.56;;;13.78;71.00
12178;BME280;6152;48.728;9.256;2023-06-14T01:36:56;96616.16;;;13.74;71.47
12178;BME280;6152;48.728;9.256;2023-06-14T01:39:23;96613.81;;;13.71;71.94
12178;BME280;6152;48.728;9.256;2023-06-14T01:41:50;96615.00;;;13.66;72.38
12178;BME280;6152;48.728;9.256;2023-06-14T01:44:18;96609.31;;;13.61;73.54
12178;BME280;6152;48.728;9.256;2023-06-14T01:46:45;96611.47;;;13.56;74.44
12178;BME280;6152;48.728;9.256;2023-06-14T01:49:12;96613.63;;;13.51;75.00
12178;BME280;6152;48.728;9.256;2023-06-14T01:51:38;96621.69;;;13.48;76.31
12178;BME280;6152;48.728;9.256;2023-06-14T01:54:04;96604.38;;;13.47;76.36
12178;BME280;6152;48.728;9.256;2023-06-14T01:56:30;96612.47;;;13.44;76.72
12178;BME280;6152;48.728;9.256;2023-06-14T01:58:56;96608.19;;;13.43;77.10
12178;BME280;6152;48.728;9.256;2023-06-14T02:01:23;96613.66;;;13.40;77.66
12178;BME280;6152;48.728;9.256;2023-06-14T02:03:49;96612.00;;;13.39;78.33
12178;BME280;6152;48.728;9.256;2023-06-14T02:06:17;96619.94;;;13.38;78.41
12178;BME280;6152;48.728;9.256;2023-06-14T02:08:43;96611.50;;;13.34;78.98
12178;BME280;6152;48.728;9.256;2023-06-14T02:11:09;96618.53;;;13.34;79.05
12178;BME280;6152;48.728;9.256;2023-06-14T02:13:35;96624.03;;;13.31;80.69
12178;BME280;6152;48.728;9.256;2023-06-14T02:16:02;96617.22;;;13.28;81.13
12178;BME280;6152;48.728;9.256;2023-06-14T02:18:28;96621.75;;;13.26;82.56
12178;BME280;6152;48.728;9.256;2023-06-14T02:20:54;96620.34;;;13.22;82.70
12178;BME280;6152;48.728;9.256;2023-06-14T02:23:20;96617.25;;;13.17;82.73
12178;BME280;6152;48.728;9.256;2023-06-14T02:25:46;96615.72;;;13.14;83.42
12178;BME280;6152;48.728;9.256;2023-06-14T02:28:12;96612.50;;;13.11;83.61
12178;BME280;6152;48.728;9.256;2023-06-14T02:30:39;96620.56;;;13.08;85.04
12178;BME280;6152;48.728;9.256;2023-06-14T02:33:06;96614.03;;;13.02;85.50
12178;BME280;6152;48.728;9.256;2023-06-14T02:35:32;96621.28;;;12.99;86.25
12178;BME280;6152;48.728;9.256;2023-06-14T02:37:58;96616.31;;;12.96;86.55
12178;BME280;6152;48.728;9.256;2023-06-14T02:40:24;96624.38;;;12.93;87.45
12178;BME280;6152;48.728;9.256;2023-06-14T02:42:50;96627.94;;;12.92;87.46
12178;BME280;6152;48.728;9.256;2023-06-14T02:45:17;96615.97;;;12.89;87.38
12178;BME280;6152;48.728;9.256;2023-06-14T02:47:43;96616.06;;;12.88;88.99
12178;BME280;6152;48.728;9.256;2023-06-14T02:50:09;96610.13;;;12.86;89.80
12178;BME280;6152;48.728;9.256;2023-06-14T02:52:35;96615.56;;;12.83;89.95
12178;BME280;6152;48.728;9.256;2023-06-14T02:55:02;96609.66;;;12.81;90.29
12178;BME280;6152;48.728;9.256;2023-06-14T02:57:28;96609.88;;;12.78;90.29
12178;BME280;6152;48.728;9.256;2023-06-14T02:59:54;96616.78;;;12.79;89.84
12178;BME280;6152;48.728;9.256;2023-06-14T03:02:20;96626.41;;;12.78;90.50
12178;BME280;6152;48.728;9.256;2023-06-14T03:04:46;96622.00;;;12.79;91.04
12178;BME280;6152;48.728;9.256;2023-06-14T03:07:13;96618.66;;;12.77;91.09
12178;BME280;6152;48.728;9.256;2023-06-14T03:09:39;96624.97;;;12.74;91.45
12178;BME280;6152;48.728;9.256;2023-06-14T03:12:06;96622.44;;;12.73;92.35
12178;BME280;6152;48.728;9.256;2023-06-14T03:14:33;96624.38;;;12.71;92.47
12178;BME280;6152;48.728;9.256;2023-06-14T03:17:00;96622.59;;;12.71;94.44
12178;BME280;6152;48.728;9.256;2023-06-14T03:19:27;96628.66;;;12.72;94.31
12178;BME280;6152;48.728;9.256;2023-06-14T03:21:53;96628.75;;;12.70;94.18
12178;BME280;6152;48.728;9.256;2023-06-14T03:24:25;96626.88;;;12.72;94.56
12178;BME280;6152;48.728;9.256;2023-06-14T03:26:55;96623.28;;;12.73;94.68
12178;BME280;6152;48.728;9.256;2023-06-14T03:29:22;96631.25;;;12.72;94.59
12178;BME280;6152;48.728;9.256;2023-06-14T03:32:01;96638.25;;;12.71;95.66
12178;BME280;6152;48.728;9.256;2023-06-14T03:34:28;96635.03;;;12.68;95.72
12178;BME280;6152;48.728;9.256;2023-06-14T03:36:54;96645.50;;;12.68;95.49
12178;BME280;6152;48.728;9.256;2023-06-14T03:39:21;96650.72;;;12.68;95.41
12178;BME280;6152;48.728;9.256;2023-06-14T03:41:47;96657.59;;;12.69;96.60
12178;BME280;6152;48.728;9.256;2023-06-14T03:44:18;96653.09;;;12.71;96.20
12178;BME280;6152;48.728;9.256;2023-06-14T03:46:45;96651.19;;;12.73;96.40
12178;BME280;6152;48.728;9.256;2023-06-14T03:49:12;96647.63;;;12.74;96.76
12178;BME280;6152;48.728;9.256;2023-06-14T03:51:38;96657.13;;;12.75;97.03
12178;BME280;6152;48.728;9.256;2023-06-14T03:54:05;96662.34;;;12.75;97.59
12178;BME280;6152;48.728;9.256;2023-06-14T03:56:32;96669.22;;;12.76;98.27
12178;BME280;6152;48.728;9.256;2023-06-14T03:58:58;96664.97;;;12.75;99.07
12178;BME280;6152;48.728;9.256;2023-06-14T04:01:24;96667.44;;;12.76;99.64
12178;BME280;6152;48.728;9.256;2023-06-14T04:03:53;96664.81;;;12.76;100.00
12178;BME280;6152;48.728;9.256;2023-06-14T04:06:19;96668.28;;;12.77;100.00
12178;BME280;6152;48.728;9.256;2023-06-14T04:08:45;96670.88;;;12.77;100.00
12178;BME280;6152;48.728;9.256;2023-06-14T04:11:12;96673.41;;;12.78;100.00
12178;BME280;6152;48.728;9.256;2023-06-14T04:13:38;96674.94;;;12.81;100.00
12178;BME280;6152;48.728;9.256;2023-06-14T04:16:05;96675.44;;;12.86;100.00
12178;BME280;6152;48.728;9.256;2023-06-14T04:18:31;96672.56;;;12.89;100.00
12178;BME280;6152;48.728;9.256;2023-06-14T04:20:57;96687.16;;;12.91;100.00
12178;BME280;6152;48.728;9.256;2023-06-14T04:23:23;96681.59;;;12.96;100.00
12178;BME280;6152;48.728;9.256;2023-06-14T04:25:49;96691.81;;;12.99;100.00
12178;BME280;6152;48.728;9.256;2023-06-14T04:28:16;96689.91;;;13.01;100.00
12178;BME280;6152;48.728;9.256;2023-06-14T04:30:43;96694.03;;;13.03;100.00
12178;BME280;6152;48.728;9.256;2023-06-14T04:33:10;96689.41;;;13.07;100.00
12178;BME280;6152;48.728;9.256;2023-06-14T04:35:37;96690.63;;;13.14;99.36
12178;BME280;6152;48.728;9.256;2023-06-14T04:38:03;96687.56;;;13.20;96.65
12178;BME280;6152;48.728;9.256;2023-06-14T04:40:36;96691.38;;;13.27;97.20
12178;BME280;6152;48.728;9.256;2023-06-14T04:43:08;96687.31;;;13.34;96.92
12178;BME280;6152;48.728;9.256;2023-06-14T04:45:38;96684.94;;;13.42;95.69
12178;BME280;6152;48.728;9.256;2023-06-14T04:48:05;96683.50;;;13.49;93.62
12178;BME280;6152;48.728;9.256;2023-06-14T04:50:32;96692.50;;;13.56;92.20
12178;BME280;6152;48.728;9.256;2023-06-14T04:52:58;96693.44;;;13.66;90.26
12178;BME280;6152;48.728;9.256;2023-06-14T04:55:25;96700.00;;;13.72;90.46
12178;BME280;6152;48.728;9.256;2023-06-14T04:57:52;96704.59;;;13.80;92.92
12178;BME280;6152;48.728;9.256;2023-06-14T05:00:20;96709.09;;;13.89;92.85
12178;BME280;6152;48.728;9.256;2023-06-14T05:02:46;96710.28;;;13.96;94.48
12178;BME280;6152;48.728;9.256;2023-06-14T05:05:13;96713.41;;;14.10;98.36
12178;BME280;6152;48.728;9.256;2023-06-14T05:07:41;96714.97;;;14.13;99.78
12178;BME280;6152;48.728;9.256;2023-06-14T05:10:07;96719.22;;;14.14;98.52
12178;BME280;6152;48.728;9.256;2023-06-14T05:12:33;96720.03;;;14.26;97.98
12178;BME280;6152;48.728;9.256;2023-06-14T05:15:00;96723.47;;;14.26;97.03
12178;BME280;6152;48.728;9.256;2023-06-14T05:17:26;96727.53;;;14.30;94.33
12178;BME280;6152;48.728;9.256;2023-06-14T05:19:53;96723.69;;;14.34;92.38
12178;BME280;6152;48.728;9.256;2023-06-14T05:22:21;96726.91;;;14.38;91.15
12178;BME280;6152;48.728;9.256;2023-06-14T05:24:48;96720.09;;;14.46;88.78
12178;BME280;6152;48.728;9.256;2023-06-14T05:27:14;96721.00;;;14.56;86.50
12178;BME280;6152;48.728;9.256;2023-06-14T05:29:40;96717.44;;;14.57;85.10
12178;BME280;6152;48.728;9.256;2023-06-14T05:32:06;96721.47;;;14.61;82.20
12178;BME280;6152;48.728;9.256;2023-06-14T05:34:33;96727.84;;;14.69;82.77
12178;BME280;6152;48.728;9.256;2023-06-14T05:36:59;96725.03;;;14.81;81.31
12178;BME280;6152;48.728;9.256;2023-06-14T05:39:26;96724.56;;;14.97;81.31
12178;BME280;6152;48.728;9.256;2023-06-14T05:41:52;96726.91;;;15.00;80.86
12178;BME280;6152;48.728;9.256;2023-06-14T05:44:18;96731.13;;;15.12;80.35
12178;BME280;6152;48.728;9.256;2023-06-14T05:46:44;96725.38;;;15.18;82.18
12178;BME280;6152;48.728;9.256;2023-06-14T05:49:10;96728.09;;;15.37;82.72
12178;BME280;6152;48.728;9.256;2023-06-14T05:51:37;96733.97;;;15.50;82.36
12178;BME280;6152;48.728;9.256;2023-06-14T05:54:03;96728.56;;;15.52;84.39
12178;BME280;6152;48.728;9.256;2023-06-14T05:56:30;96727.91;;;15.59;85.20
12178;BME280;6152;48.728;9.256;2023-06-14T05:58:56;96722.69;;;15.69;84.71
12178;BME280;6152;48.728;9.256;2023-06-14T06:01:22;96726.06;;;15.81;81.52
12178;BME280;6152;48.728;9.256;2023-06-14T06:03:48;96729.81;;;15.88;76.55
12178;BME280;6152;48.728;9.256;2023-06-14T06:06:14;96726.34;;;15.97;75.51
12178;BME280;6152;48.728;9.256;2023-06-14T06:08:40;96733.03;;;16.20;71.62
12178;BME280;6152;48.728;9.256;2023-06-14T06:11:07;96741.03;;;16.28;72.41
12178;BME280;6152;48.728;9.256;2023-06-14T06:13:33;96731.09;;;16.41;72.25
12178;BME280;6152;48.728;9.256;2023-06-14T06:16:01;96735.81;;;16.47;71.42
12178;BME280;6152;48.728;9.256;2023-06-14T06:18:27;96741.66;;;16.60;73.01
12178;BME280;6152;48.728;9.256;2023-06-14T06:20:53;96747.16;;;16.77;71.54
12178;BME280;6152;48.728;9.256;2023-06-14T06:23:19;96744.09;;;16.91;69.82
12178;BME280;6152;48.728;9.256;2023-06-14T06:25:45;96747.16;;;16.96;67.44
12178;BME280;6152;48.728;9.256;2023-06-14T06:28:12;96748.47;;;17.19;63.32
12178;BME280;6152;48.728;9.256;2023-06-14T06:30:38;96743.72;;;17.32;59.30
12178;BME280;6152;48.728;9.256;2023-06-14T06:33:04;96745.78;;;17.38;58.35
12178;BME280;6152;48.728;9.256;2023-06-14T06:35:30;96748.34;;;17.67;55.40
12178;BME280;6152;48.728;9.256;2023-06-14T06:37:59;96752.97;;;17.83;55.55
12178;BME280;6152;48.728;9.256;2023-06-14T06:40:25;96746.34;;;18.06;54.25
12178;BME280;6152;48.728;9.256;2023-06-14T06:42:51;96746.63;;;18.21;54.46
12178;BME280;6152;48.728;9.256;2023-06-14T06:45:17;96748.25;;;18.49;51.68
12178;BME280;6152;48.728;9.256;2023-06-14T06:47:43;96756.88;;;18.69;50.52
12178;BME280;6152;48.728;9.256;2023-06-14T06:50:10;96761.31;;;18.86;50.73
12178;BME280;6152;48.728;9.256;2023-06-14T06:52:36;96760.72;;;19.00;49.80
12178;BME280;6152;48.728;9.256;2023-06-14T06:55:02;96765.91;;;19.27;48.53
12178;BME280;6152;48.728;9.256;2023-06-14T06:57:29;96767.22;;;19.31;48.72
12178;BME280;6152;48.728;9.256;2023-06-14T06:59:55;96770.03;;;19.55;47.27
12178;BME280;6152;48.728;9.256;2023-06-14T07:02:22;96768.31;;;19.72;47.38
12178;BME280;6152;48.728;9.256;2023-06-14T07:04:48;96771.50;;;19.84;47.19
12178;BME280;6152;48.728;9.256;2023-06-14T07:07:14;96769.28;;;20.05;46.28
12178;BME280;6152;48.728;9.256;2023-06-14T07:09:40;96783.25;;;20.31;46.45
12178;BME280;6152;48.728;9.256;2023-06-14T07:12:08;96780.53;;;20.57;44.45
12178;BME280;6152;48.728;9.256;2023-06-14T07:14:34;96774.09;;;20.76;44.86
12178;BME280;6152;48.728;9.256;2023-06-14T07:17:00;96787.72;;;21.13;45.12
12178;BME280;6152;48.728;9.256;2023-06-14T07:19:26;96790.16;;;21.47;42.78
12178;BME280;6152;48.728;9.256;2023-06-14T07:21:52;96787.31;;;21.56;41.62
12178;BME280;6152;48.728;9.256;2023-06-14T07:24:18;96786.19;;;21.51;42.28
12178;BME280;6152;48.728;9.256;2023-06-14T07:26:47;96795.28;;;21.32;43.87
12178;BME280;6152;48.728;9.256;2023-06-14T07:29:14;96793.94;;;21.52;43.02
12178;BME280;6152;48.728;9.256;2023-06-14T07:31:40;96796.53;;;21.77;42.80
12178;BME280;6152;48.728;9.256;2023-06-14T07:34:06;96793.22;;;21.91;42.66
12178;BME280;6152;48.728;9.256;2023-06-14T07:36:32;96802.38;;;22.19;40.65
12178;BME280;6152;48.728;9.256;2023-06-14T07:38:59;96787.69;;;22.39;40.90
12178;BME280;6152;48.728;9.256;2023-06-14T07:41:25;96789.88;;;22.58;40.26
12178;BME280;6152;48.728;9.256;2023-06-14T07:43:51;96791.63;;;22.82;40.31
12178;BME280;6152;48.728;9.256;2023-06-14T07:46:17;96795.47;;;23.17;39.49
12178;BME280;6152;48.728;9.256;2023-06-14T07:48:44;96799.22;;;23.45;38.38
12178;BME280;6152;48.728;9.256;2023-06-14T07:51:10;96800.19;;;23.67;37.83
12178;BME280;6152;48.728;9.256;2023-06-14T07:53:36;96806.34;;;24.11;36.33
12178;BME280;6152;48.728;9.256;2023-06-14T07:56:02;96805.59;;;24.32;36.13
12178;BME280;6152;48.728;9.256;2023-06-14T07:58:28;96797.69;;;24.53;35.89
12178;BME280;6152;48.728;9.256;2023-06-14T08:00:55;96790.78;;;24.95;35.64
12178;BME280;6152;48.728;9.256;2023-06-14T08:03:21;96790.06;;;25.07;34.95
12178;BME280;6152;48.728;9.256;2023-06-14T08:05:48;96798.94;;;25.57;34.74
12178;BME280;6152;48.728;9.256;2023-06-14T08:08:14;96806.84;;;25.72;33.54
12178;BME280;6152;48.728;9.256;2023-06-14T08:10:41;96798.94;;;25.91;33.99
12178;BME280;6152;48.728;9.256;2023-06-14T08:13:07;96799.84;;;26.05;33.83
12178;BME280;6152;48.728;9.256;2023-06-14T08:15:35;96804.19;;;26.12;33.93
12178;BME280;6152;48.728;9.256;2023-06-14T08:18:01;96799.53;;;26.21;33.43
12178;BME280;6152;48.728;9.256;2023-06-14T08:20:27;96797.69;;;26.76;33.90
12178;BME280;6152;48.728;9.256;2023-06-14T08:22:56;96806.00;;;27.07;33.18
12178;BME280;6152;48.728;9.256;2023-06-14T08:25:22;96796.31;;;26.93;32.67
12178;BME280;6152;48.728;9.256;2023-06-14T08:27:49;96801.06;;;27.17;32.61
12178;BME280;6152;48.728;9.256;2023-06-14T08:30:17;96802.50;;;27.00;32.27
12178;BME280;6152;48.728;9.256;2023-06-14T08:32:43;96802.78;;;27.44;31.51
12178;BME280;6152;48.728;9.256;2023-06-14T08:35:09;96809.34;;;27.75;31.19
12178;BME280;6152;48.728;9.256;2023-06-14T08:37:39;96811.34;;;28.19;31.23
12178;BME280;6152;48.728;9.256;2023-06-14T08:40:20;96801.25;;;28.78;30.08
12178;BME280;6152;48.728;9.256;2023-06-14T08:42:50;96806.03;;;29.64;29.21
12178;BME280;6152;48.728;9.256;2023-06-14T08:45:17;96798.81;;;30.25;27.66
12178;BME280;6152;48.728;9.256;2023-06-14T08:47:44;96807.59;;;30.14;27.94
12178;BME280;6152;48.728;9.256;2023-06-14T08:50:12;96805.09;;;30.19;27.55
12178;BME280;6152;48.728;9.256;2023-06-14T08:52:45;96812.28;;;30.43;27.20
12178;BME280;6152;48.728;9.256;2023-06-14T08:55:16;96805.19;;;30.97;26.92
12178;BME280;6152;48.728;9.256;2023-06-14T08:57:44;96803.63;;;31.61;26.26
12178;BME280;6152;48.728;9.256;2023-06-14T09:00:12;96807.22;;;32.36;26.16
12178;BME280;6152;48.728;9.256;2023-06-14T09:02:40;96800.38;;;33.41;24.63
12178;BME280;6152;48.728;9.256;2023-06-14T09:05:13;96797.78;;;33.80;24.08
12178;BME280;6152;48.728;9.256;2023-06-14T09:07:42;96800.25;;;33.81;23.70
12178;BME280;6152;48.728;9.256;2023-06-14T09:10:10;96798.38;;;33.65;23.64
12178;BME280;6152;48.728;9.256;2023-06-14T09:12:37;96798.81;;;34.50;23.34
12178;BME280;6152;48.728;9.256;2023-06-14T09:15:04;96795.59;;;35.56;21.01
12178;BME280;6152;48.728;9.256;2023-06-14T09:17:38;96799.72;;;35.58;21.59
12178;BME280;6152;48.728;9.256;2023-06-14T09:20:09;96797.47;;;36.24;21.92
12178;BME280;6152;48.728;9.256;2023-06-14T09:22:37;96790.00;;;36.04;20.86
12178;BME280;6152;48.728;9.256;2023-06-14T09:25:04;96789.75;;;35.64;21.22
12178;BME280;6152;48.728;9.256;2023-06-14T09:27:33;96792.13;;;35.92;21.33
12178;BME280;6152;48.728;9.256;2023-06-14T09:30:02;96780.91;;;36.82;19.97
12178;BME280;6152;48.728;9.256;2023-06-14T09:32:29;96784.31;;;38.01;19.61
12178;BME280;6152;48.728;9.256;2023-06-14T09:34:56;96790.84;;;37.34;19.78
12178;BME280;6152;48.728;9.256;2023-06-14T09:37:29;96783.50;;;37.29;19.60
12178;BME280;6152;48.728;9.256;2023-06-14T09:39:56;96780.25;;;37.88;19.19
12178;BME280;6152;48.728;9.256;2023-06-14T09:42:23;96782.69;;;37.39;19.12
12178;BME280;6152;48.728;9.256;2023-06-14T09:44:53;96783.22;;;37.16;18.28
12178;BME280;6152;48.728;9.256;2023-06-14T09:47:23;96786.03;;;34.46;19.81
12178;BME280;6152;48.728;9.256;2023-06-14T09:49:51;96789.25;;;33.21;21.40
12178;BME280;6152;48.728;9.256;2023-06-14T09:52:21;96791.56;;;33.29;21.29
12178;BME280;6152;48.728;9.256;2023-06-14T09:54:48;96796.34;;;34.92;19.35
12178;BME280;6152;48.728;9.256;2023-06-14T09:57:22;96790.91;;;36.10;18.00
12178;BME280;6152;48.728;9.256;2023-06-14T09:59:50;96784.84;;;36.50;18.00
12178;BME280;6152;48.728;9.256;2023-06-14T10:02:21;96780.72;;;37.04;17.37
12178;BME280;6152;48.728;9.256;2023-06-14T10:05:25;96789.88;;;38.60;16.39
12178;BME280;6152;48.728;9.256;2023-06-14T10:07:56;96784.56;;;40.00;15.77
12178;BME280;6152;48.728;9.256;2023-06-14T10:10:25;96791.50;;;39.15;15.95
12178;BME280;6152;48.728;9.256;2023-06-14T10:12:51;96791.38;;;38.96;16.39
12178;BME280;6152;48.728;9.256;2023-06-14T10:18:31;96780.47;;;39.40;15.38
12178;BME280;6152;48.728;9.256;2023-06-14T10:21:18;96775.38;;;38.74;15.80
12178;BME280;6152;48.728;9.256;2023-06-14T10:23:47;96788.81;;;38.51;16.31
12178;BME280;6152;48.728;9.256;2023-06-14T10:26:22;96782.47;;;38.75;16.00
12178;BME280;6152;48.728;9.256;2023-06-14T10:28:58;96784.06;;;38.76;15.81
12178;BME280;6152;48.728;9.256;2023-06-14T10:34:07;96760.72;;;37.61;16.09
12178;BME280;6152;48.728;9.256;2023-06-14T10:36:33;96778.63;;;37.67;16.48
12178;BME280;6152;48.728;9.256;2023-06-14T10:39:17;96782.38;;;38.11;16.34
12178;BME280;6152;48.728;9.256;2023-06-14T10:41:52;96768.63;;;38.62;16.40
12178;BME280;6152;48.728;9.256;2023-06-14T10:46:53;96765.69;;;38.58;15.39
12178;BME280;6152;48.728;9.256;2023-06-14T10:49:20;96772.13;;;37.48;16.50
12178;BME280;6152;48.728;9.256;2023-06-14T10:52:03;96777.78;;;38.17;16.96
12178;BME280;6152;48.728;9.256;2023-06-14T10:54:32;96778.25;;;38.29;15.85
12178;BME280;6152;48.728;9.256;2023-06-14T10:56:59;96774.84;;;37.68;16.69
12178;BME280;6152;48.728;9.256;2023-06-14T10:59:25;96773.44;;;37.20;17.21
12178;BME280;6152;48.728;9.256;2023-06-14T11:04:49;96776.13;;;38.90;16.23
12178;BME280;6152;48.728;9.256;2023-06-14T11:12:33;96754.72;;;40.61;15.28
12178;BME280;6152;48.728;9.256;2023-06-14T11:15:01;96756.81;;;40.88;14.39
12178;BME280;6152;48.728;9.256;2023-06-14T11:17:27;96761.19;;;40.89;14.58
12178;BME280;6152;48.728;9.256;2023-06-14T11:20:10;96755.06;;;41.86;14.43
12178;BME280;6152;48.728;9.256;2023-06-14T11:22:43;96756.66;;;40.13;14.29
12178;BME280;6152;48.728;9.256;2023-06-14T11:25:11;96771.84;;;38.69;15.50
12178;BME280;6152;48.728;9.256;2023-06-14T11:27:37;96772.00;;;38.33;16.23
12178;BME280;6152;48.728;9.256;2023-06-14T11:30:06;96769.13;;;38.74;15.27
12178;BME280;6152;48.728;9.256;2023-06-14T11:32:32;96763.38;;;39.63;15.36
12178;BME280;6152;48.728;9.256;2023-06-14T11:34:59;96767.59;;;39.79;15.30
12178;BME280;6152;48.728;9.256;2023-06-14T11:37:28;96770.72;;;40.20;14.58
12178;BME280;6152;48.728;9.256;2023-06-14T11:39:59;96759.53;;;40.46;14.50
12178;BME280;6152;48.728;9.256;2023-06-14T11:42:28;96763.81;;;40.52;14.33
12178;BME280;6152;48.728;9.256;2023-06-14T11:44:56;96764.81;;;41.03;14.05
12178;BME280;6152;48.728;9.256;2023-06-14T11:47:22;96760.06;;;41.27;14.48
12178;BME280;6152;48.728;9.256;2023-06-14T11:49:49;96760.06;;;41.27;14.77
12178;BME280;6152;48.728;9.256;2023-06-14T11:52:16;96758.53;;;41.21;15.04
12178;BME280;6152;48.728;9.256;2023-06-14T11:54:42;96753.84;;;40.66;14.68
12178;BME280;6152;48.728;9.256;2023-06-14T11:57:08;96757.69;;;37.98;16.22
12178;BME280;6152;48.728;9.256;2023-06-14T11:59:40;96747.16;;;35.22;18.00
12178;BME280;6152;48.728;9.256;2023-06-14T12:02:07;96751.66;;;34.63;18.93
12178;BME280;6152;48.728;9.256;2023-06-14T12:04:33;96749.78;;;34.20;19.78
12178;BME280;6152;48.728;9.256;2023-06-14T12:07:12;96744.75;;;34.99;19.22
12178;BME280;6152;48.728;9.256;2023-06-14T12:10:03;96748.31;;;34.78;19.02
12178;BME280;6152;48.728;9.256;2023-06-14T12:12:35;96758.84;;;33.59;20.79
12178;BME280;6152;48.728;9.256;2023-06-14T12:15:04;96743.72;;;32.96;20.18
12178;BME280;6152;48.728;9.256;2023-06-14T12:17:35;96748.97;;;32.46;20.61
12178;BME280;6152;48.728;9.256;2023-06-14T12:20:12;96745.84;;;31.22;22.01
12178;BME280;6152;48.728;9.256;2023-06-14T12:23:02;96742.72;;;30.53;22.00
12178;BME280;6152;48.728;9.256;2023-06-14T12:25:35;96750.03;;;29.92;23.79
12178;BME280;6152;48.728;9.256;2023-06-14T12:28:07;96747.28;;;28.75;24.22
12178;BME280;6152;48.728;9.256;2023-06-14T12:30:35;96743.88;;;28.54;25.26
12178;BME280;6152;48.728;9.256;2023-06-14T12:33:02;96747.66;;;28.27;24.68
12178;BME280;6152;48.728;9.256;2023-06-14T12:35:29;96747.88;;;28.32;25.02
12178;BME280;6152;48.728;9.256;2023-06-14T12:37:55;96745.06;;;28.14;25.85
12178;BME280;6152;48.728;9.256;2023-06-14T12:40:22;96752.97;;;27.76;25.99
12178;BME280;6152;48.728;9.256;2023-06-14T12:42:48;96742.63;;;27.86;25.99
12178;BME280;6152;48.728;9.256;2023-06-14T12:45:15;96750.31;;;27.70;26.81
12178;BME280;6152;48.728;9.256;2023-06-14T12:47:41;96750.72;;;27.67;26.75
12178;BME280;6152;48.728;9.256;2023-06-14T12:50:08;96745.97;;;26.90;27.31
12178;BME280;6152;48.728;9.256;2023-06-14T12:52:34;96754.41;;;26.20;27.49
12178;BME280;6152;48.728;9.256;2023-06-14T12:55:04;96762.19;;;26.21;28.37
12178;BME280;6152;48.728;9.256;2023-06-14T12:57:31;96757.50;;;26.23;28.51
12178;BME280;6152;48.728;9.256;2023-06-14T12:59:59;96761.78;;;26.24;28.90
12178;BME280;6152;48.728;9.256;2023-06-14T13:02:26;96758.09;;;26.25;28.80
12178;BME280;6152;48.728;9.256;2023-06-14T13:04:52;96760.56;;;26.20;28.50
12178;BME280;6152;48.728;9.256;2023-06-14T13:07:18;96757.28;;;26.25;28.98
12178;BME280;6152;48.728;9.256;2023-06-14T13:09:45;96752.38;;;26.28;28.77
12178;BME280;6152;48.728;9.256;2023-06-14T13:12:11;96758.69;;;26.21;29.04
12178;BME280;6152;48.728;9.256;2023-06-14T13:14:41;96761.25;;;26.01;29.46
12178;BME280;6152;48.728;9.256;2023-06-14T13:17:10;96760.84;;;26.04;28.58
12178;BME280;6152;48.728;9.256;2023-06-14T13:19:37;96765.44;;;26.17;28.71
12178;BME280;6152;48.728;9.256;2023-06-14T13:22:03;96753.78;;;26.24;28.99
12178;BME280;6152;48.728;9.256;2023-06-14T13:24:30;96756.38;;;26.11;28.51
12178;BME280;6152;48.728;9.256;2023-06-14T13:26:56;96768.69;;;26.12;28.94
12178;BME280;6152;48.728;9.256;2023-06-14T13:29:24;96767.44;;;26.08;29.69
12178;BME280;6152;48.728;9.256;2023-06-14T13:31:50;96764.19;;;26.12;28.97